createdAt,value
2019-05-09T00:01:14.185Z,0.60
2019-05-09T00:03:44.346Z,0.60
2019-05-09T00:06:13.755Z,0.70
2019-05-09T00:08:44.228Z,0.50
2019-05-09T00:11:14.521Z,0.60
2019-05-09T00:13:43.502Z,0.63
2019-05-09T00:16:14.466Z,0.63
2019-05-09T00:18:44.100Z,0.70
2019-05-09T00:21:13.997Z,0.60
2019-05-09T00:23:43.732Z,1.00
2019-05-09T00:26:13.418Z,0.50
2019-05-09T00:28:44.188Z,0.50
2019-05-09T00:31:14.341Z,0.70
2019-05-09T00:33:47.805Z,0.70
2019-05-09T00:36:14.537Z,0.50
2019-05-09T00:38:44.701Z,0.50
2019-05-09T00:41:13.928Z,0.60
2019-05-09T00:43:44.208Z,0.80
2019-05-09T00:46:14.256Z,0.50
2019-05-09T00:48:53.567Z,0.60
2019-05-09T00:51:23.310Z,0.50
2019-05-09T00:53:53.628Z,0.50
2019-05-09T00:56:23.991Z,0.53
2019-05-09T00:58:53.538Z,0.50
2019-05-09T01:01:23.990Z,0.40
2019-05-09T01:03:53.513Z,0.40
2019-05-09T01:06:23.849Z,6.53
2019-05-09T01:08:53.614Z,4.30
2019-05-09T01:11:24.294Z,0.40
2019-05-09T01:13:54.296Z,0.20
2019-05-09T01:16:24.165Z,0.20
2019-05-09T01:18:54.361Z,0.20
2019-05-09T01:21:24.044Z,0.20
2019-05-09T01:23:53.979Z,0.20
2019-05-09T01:26:23.931Z,0.20
2019-05-09T01:28:54.109Z,0.20
2019-05-09T01:31:24.099Z,0.20
2019-05-09T01:34:06.758Z,0.40
2019-05-09T01:36:54.027Z,0.20
2019-05-09T01:39:24.185Z,0.20
2019-05-09T01:41:53.161Z,0.20
2019-05-09T01:44:23.814Z,0.10
2019-05-09T01:46:53.876Z,0.20
2019-05-09T01:49:23.275Z,0.13
2019-05-09T01:51:53.688Z,0.10
2019-05-09T01:54:23.761Z,0.20
2019-05-09T01:56:53.712Z,0.20
2019-05-09T01:59:24.247Z,0.20
2019-05-09T02:01:54.121Z,0.20
2019-05-09T02:04:24.318Z,0.20
2019-05-09T02:06:53.886Z,0.20
2019-05-09T02:09:23.417Z,0.20
2019-05-09T02:11:54.460Z,0.30
2019-05-09T02:14:24.107Z,0.20
2019-05-09T02:16:54.125Z,0.20
2019-05-09T02:19:24.218Z,0.10
2019-05-09T02:21:53.159Z,0.13
2019-05-09T02:24:23.407Z,0.20
2019-05-09T02:26:53.352Z,0.20
2019-05-09T02:29:23.168Z,0.20
2019-05-09T02:31:54.433Z,0.10
2019-05-09T02:34:24.522Z,0.10
2019-05-09T02:36:51.897Z,0.20
2019-05-09T02:39:20.289Z,0.17
2019-05-09T02:42:01.198Z,0.10
2019-05-09T02:44:19.771Z,0.20
2019-05-09T02:46:59.124Z,0.20
2019-05-09T02:49:28.747Z,0.20
2019-05-09T02:51:59.163Z,0.23
2019-05-09T02:54:29.760Z,0.10
2019-05-09T02:56:58.240Z,0.30
2019-05-09T02:59:38.622Z,0.10
2019-05-09T03:02:25.123Z,0.20
2019-05-09T03:04:53.723Z,0.30
2019-05-09T03:07:23.853Z,0.20
2019-05-09T03:09:52.309Z,0.20
2019-05-09T03:12:30.465Z,0.20
2019-05-09T03:14:51.043Z,0.20
2019-05-09T03:17:19.427Z,0.20
2019-05-09T03:19:48.794Z,0.13
2019-05-09T03:22:21.875Z,0.20
2019-05-09T03:24:50.306Z,0.20
2019-05-09T03:28:43.512Z,0.10
2019-05-09T03:31:13.823Z,0.20
2019-05-09T03:33:42.285Z,0.20
2019-05-09T03:36:10.746Z,0.20
2019-05-09T03:38:39.370Z,0.20
2019-05-09T03:41:08.522Z,0.23
2019-05-09T03:43:37.733Z,0.20
2019-05-09T03:46:07.943Z,0.25
2019-05-09T03:48:38.099Z,0.40
2019-05-09T03:51:08.112Z,0.83
2019-05-09T03:53:37.979Z,0.50
2019-05-09T03:56:08.165Z,0.30
2019-05-09T03:58:38.482Z,0.27
2019-05-09T04:01:10.359Z,0.10
2019-05-09T04:03:37.840Z,0.20
2019-05-09T04:06:08.285Z,0.17
2019-05-09T04:08:37.643Z,0.10
2019-05-09T04:11:08.409Z,0.13
2019-05-09T04:13:41.014Z,0.20
2019-05-09T04:16:09.987Z,0.20
2019-05-09T04:18:40.242Z,0.10
2019-05-09T04:21:08.578Z,0.20
2019-05-09T04:23:37.882Z,0.20
2019-05-09T04:26:24.225Z,0.20
2019-05-09T04:28:52.614Z,0.20
2019-05-09T04:31:21.092Z,0.50
2019-05-09T04:33:49.493Z,0.30
2019-05-09T04:36:19.519Z,0.23
2019-05-09T04:38:48.179Z,0.27
2019-05-09T04:41:23.590Z,0.53
2019-05-09T04:43:48.650Z,0.70
2019-05-09T04:46:20.684Z,0.50
2019-05-09T04:48:47.662Z,1.30
2019-05-09T04:51:18.034Z,2.90
2019-05-09T04:53:47.971Z,1.80
2019-05-09T04:56:27.839Z,0.70
2019-05-09T04:58:58.321Z,0.30
2019-05-09T05:01:40.744Z,0.20
2019-05-09T05:04:09.395Z,0.40
2019-05-09T05:06:40.308Z,0.10
2019-05-09T05:09:09.206Z,0.10
2019-05-09T05:11:38.369Z,0.20
2019-05-09T05:14:09.150Z,0.20
2019-05-09T05:16:39.205Z,0.10
2019-05-09T05:19:07.594Z,0.10
2019-05-09T05:21:37.801Z,0.10
2019-05-09T05:24:13.890Z,0.10
2019-05-09T05:26:42.331Z,0.17
2019-05-09T05:29:10.712Z,0.10
2019-05-09T05:31:39.143Z,0.10
2019-05-09T05:34:14.933Z,0.13
2019-05-09T05:36:43.369Z,0.13
2019-05-09T05:39:11.746Z,0.30
2019-05-09T05:41:40.201Z,0.20
2019-05-09T05:44:08.691Z,0.10
2019-05-09T05:49:24.803Z,0.10
2019-05-09T05:51:53.285Z,0.10
2019-05-09T05:54:22.653Z,0.10
2019-05-09T05:56:51.480Z,0.20
2019-05-09T05:59:19.865Z,0.20
2019-05-09T06:01:49.855Z,0.20
2019-05-09T06:04:18.796Z,0.10
2019-05-09T06:06:48.025Z,0.20
2019-05-09T06:09:19.065Z,0.20
2019-05-09T06:11:48.521Z,0.10
2019-05-09T06:14:18.494Z,0.20
2019-05-09T06:16:48.643Z,0.13
2019-05-09T06:19:17.966Z,0.20
2019-05-09T06:21:48.555Z,0.20
2019-05-09T06:24:17.733Z,0.30
2019-05-09T06:26:47.885Z,0.20
2019-05-09T06:29:17.780Z,0.20
2019-05-09T06:31:48.360Z,0.50
2019-05-09T06:34:18.836Z,0.50
2019-05-09T06:36:48.966Z,0.23
2019-05-09T06:39:17.831Z,0.40
2019-05-09T06:41:48.382Z,0.20
2019-05-09T06:44:20.923Z,0.70
2019-05-09T06:46:50.965Z,0.80
2019-05-09T06:49:28.313Z,0.60
2019-05-09T06:51:53.893Z,0.50
2019-05-09T06:54:22.307Z,0.50
2019-05-09T06:56:50.861Z,0.60
2019-05-09T06:59:19.272Z,0.30
2019-05-09T07:01:49.303Z,0.50
2019-05-09T07:04:21.802Z,0.60
2019-05-09T07:06:51.978Z,0.33
2019-05-09T07:09:24.449Z,0.60
2019-05-09T07:11:52.844Z,3.37
2019-05-09T07:14:33.406Z,0.80
2019-05-09T07:17:01.955Z,0.50
2019-05-09T07:19:30.384Z,0.43
2019-05-09T07:22:18.153Z,0.60
2019-05-09T07:25:09.381Z,0.40
2019-05-09T07:27:39.276Z,0.80
2019-05-09T07:30:18.943Z,0.50
2019-05-09T07:32:58.021Z,2.50
2019-05-09T07:35:27.894Z,2.53
2019-05-09T07:37:57.904Z,1.40
2019-05-09T07:40:30.521Z,1.80
2019-05-09T07:42:58.546Z,15.53
2019-05-09T07:45:28.138Z,25.40
2019-05-09T07:47:58.372Z,6.97
2019-05-09T07:50:27.674Z,3.77
2019-05-09T07:52:58.161Z,1.87
2019-05-09T07:55:27.450Z,2.00
2019-05-09T07:57:58.749Z,1.60
2019-05-09T08:00:32.193Z,0.77
2019-05-09T08:03:00.637Z,0.40
2019-05-09T08:05:30.676Z,0.50
2019-05-09T08:07:59.137Z,0.50
2019-05-09T08:10:32.317Z,0.63
2019-05-09T08:12:58.664Z,0.90
2019-05-09T08:15:28.004Z,0.60
2019-05-09T08:17:59.116Z,0.40
2019-05-09T08:20:27.671Z,0.47
2019-05-09T08:22:58.672Z,0.30
2019-05-09T08:25:27.703Z,0.40
2019-05-09T08:27:58.556Z,0.60
2019-05-09T08:30:32.907Z,0.40
2019-05-09T08:32:59.654Z,0.50
2019-05-09T08:35:27.917Z,0.43
2019-05-09T08:37:58.364Z,0.40
2019-05-09T08:40:28.306Z,0.60
2019-05-09T08:42:58.817Z,0.50
2019-05-09T08:45:31.027Z,2.77
2019-05-09T08:47:58.068Z,0.53
2019-05-09T08:50:31.230Z,0.70
2019-05-09T08:52:59.632Z,0.50
2019-05-09T08:55:28.047Z,0.33
2019-05-09T08:57:58.668Z,0.20
2019-05-09T09:00:28.127Z,0.50
2019-05-09T09:02:57.520Z,1.03
2019-05-09T09:05:28.640Z,4.73
2019-05-09T09:07:57.760Z,6.93
2019-05-09T09:10:29.137Z,1.07
2019-05-09T09:12:58.128Z,7.90
2019-05-09T09:15:50.398Z,6.17
2019-05-09T09:17:58.024Z,8.57
2019-05-09T09:20:28.883Z,5.60
2019-05-09T09:22:58.234Z,12.20
2019-05-09T09:25:28.691Z,4.83
2019-05-09T09:27:58.129Z,7.30
2019-05-09T09:30:29.256Z,2.10
2019-05-09T09:32:58.590Z,0.70
2019-05-09T09:35:27.934Z,0.40
2019-05-09T09:37:58.050Z,0.50
2019-05-09T09:40:27.861Z,1.00
2019-05-09T09:42:58.044Z,0.60
2019-05-09T09:45:28.060Z,0.37
2019-05-09T09:47:59.064Z,0.23
2019-05-09T09:50:27.680Z,0.37
2019-05-09T09:52:58.925Z,0.30
2019-05-09T09:55:27.851Z,0.30
2019-05-09T09:57:57.862Z,0.20
2019-05-09T10:00:40.087Z,0.33
2019-05-09T10:03:08.472Z,0.50
2019-05-09T10:05:38.062Z,0.60
2019-05-09T10:08:10.361Z,4.97
2019-05-09T10:10:37.621Z,0.30
2019-05-09T10:13:10.387Z,0.30
2019-05-09T10:15:52.964Z,0.30
2019-05-09T10:18:23.019Z,0.17
2019-05-09T10:20:53.127Z,0.20
2019-05-09T10:23:21.836Z,0.20
2019-05-09T10:25:50.426Z,0.30
2019-05-09T10:28:21.430Z,0.40
2019-05-09T10:30:48.979Z,0.27
2019-05-09T10:33:17.669Z,0.30
2019-05-09T10:35:47.946Z,0.47
2019-05-09T10:38:18.380Z,0.60
2019-05-09T10:40:48.481Z,0.60
2019-05-09T10:43:34.701Z,0.50
2019-05-09T10:46:09.054Z,0.43
2019-05-09T10:48:38.637Z,0.50
2019-05-09T10:51:10.531Z,0.50
2019-05-09T10:53:37.268Z,0.70
2019-05-09T10:56:08.651Z,0.63
2019-05-09T10:58:37.409Z,0.50
2019-05-09T11:01:09.078Z,0.30
2019-05-09T11:03:37.687Z,2.10
2019-05-09T11:06:08.607Z,0.60
2019-05-09T11:08:38.045Z,0.30
2019-05-09T11:11:09.328Z,0.60
2019-05-09T11:13:39.017Z,0.40
2019-05-09T11:16:07.673Z,0.40
2019-05-09T11:18:36.283Z,0.47
2019-05-09T11:21:04.736Z,0.30
2019-05-09T11:23:33.338Z,0.40
2019-05-09T11:26:01.962Z,0.40
2019-05-09T11:28:36.281Z,0.50
2019-05-09T11:31:04.853Z,0.20
2019-05-09T11:33:33.369Z,0.30
2019-05-09T11:36:01.964Z,0.30
2019-05-09T11:38:36.466Z,1.33
2019-05-09T11:41:00.677Z,0.67
2019-05-09T11:43:29.873Z,0.20
2019-05-09T11:45:58.805Z,0.63
2019-05-09T11:48:29.336Z,0.80
2019-05-09T11:50:58.953Z,1.00
2019-05-09T11:53:28.855Z,1.30
2019-05-09T11:55:57.919Z,1.07
2019-05-09T11:58:28.000Z,1.20
2019-05-09T12:00:56.628Z,2.00
2019-05-09T12:03:25.030Z,1.13
2019-05-09T12:05:53.470Z,0.57
2019-05-09T12:08:22.149Z,0.23
2019-05-09T12:10:50.644Z,0.40
2019-05-09T12:13:19.049Z,0.67
2019-05-09T12:15:48.933Z,0.50
2019-05-09T12:18:17.558Z,0.83
2019-05-09T12:20:48.285Z,0.90
2019-05-09T12:23:19.634Z,1.07
2019-05-09T12:25:46.453Z,0.97
2019-05-09T12:28:14.983Z,1.30
2019-05-09T12:30:43.429Z,1.77
2019-05-09T12:33:11.827Z,1.00
2019-05-09T12:35:40.241Z,0.70
2019-05-09T12:38:08.732Z,0.73
2019-05-09T12:40:38.884Z,0.73
2019-05-09T12:43:09.072Z,0.77
2019-05-09T12:45:38.797Z,0.70
2019-05-09T12:48:15.117Z,0.67
2019-05-09T12:50:38.762Z,1.20
2019-05-09T12:53:07.259Z,0.60
2019-05-09T12:55:35.643Z,0.80
2019-05-09T12:58:04.216Z,0.40
2019-05-09T13:00:32.634Z,1.17
2019-05-09T13:03:01.102Z,0.43
2019-05-09T13:05:31.052Z,0.30
2019-05-09T13:07:59.481Z,0.50
2019-05-09T13:10:28.365Z,0.40
2019-05-09T13:12:56.882Z,0.30
2019-05-09T13:15:31.102Z,0.17
2019-05-09T13:17:58.058Z,0.50
2019-05-09T13:20:28.565Z,0.43
2019-05-09T13:22:58.837Z,0.30
2019-05-09T13:25:28.913Z,0.20
2019-05-09T13:27:58.180Z,0.30
2019-05-09T13:30:28.522Z,0.30
2019-05-09T13:32:57.010Z,0.30
2019-05-09T13:35:27.768Z,0.20
2019-05-09T13:37:55.590Z,0.20
2019-05-09T13:40:24.048Z,0.20
2019-05-09T13:42:52.442Z,0.20
2019-05-09T13:45:20.850Z,0.20
2019-05-09T13:47:49.684Z,0.13
2019-05-09T13:50:18.763Z,0.30
2019-05-09T13:52:48.048Z,0.40
2019-05-09T13:55:17.775Z,0.20
2019-05-09T13:57:48.517Z,0.30
2019-05-09T14:00:18.526Z,0.20
2019-05-09T14:02:48.768Z,0.23
2019-05-09T14:05:19.114Z,0.20
2019-05-09T14:07:49.160Z,0.30
2019-05-09T14:10:18.164Z,0.10
2019-05-09T14:13:03.692Z,0.20
2019-05-09T14:15:18.455Z,0.20
2019-05-09T14:17:53.008Z,0.20
2019-05-09T14:20:17.991Z,0.20
2019-05-09T14:22:49.054Z,0.40
2019-05-09T14:25:19.469Z,0.20
2019-05-09T14:27:51.496Z,0.20
2019-05-09T14:30:19.734Z,0.20
2019-05-09T14:32:49.733Z,0.20
2019-05-09T14:35:18.542Z,0.10
2019-05-09T14:37:48.797Z,0.20
2019-05-09T14:40:17.735Z,0.30
2019-05-09T14:42:46.314Z,0.30
2019-05-09T14:45:17.922Z,0.30
2019-05-09T14:47:45.408Z,0.20
2019-05-09T14:50:14.064Z,0.20
2019-05-09T14:52:42.471Z,0.20
2019-05-09T14:55:11.229Z,0.10
2019-05-09T14:57:39.679Z,1.70
2019-05-09T15:00:08.573Z,0.23
2019-05-09T15:02:38.936Z,0.40
2019-05-09T15:05:09.408Z,0.30
2019-05-09T15:07:38.901Z,0.20
2019-05-09T15:10:08.621Z,0.20
2019-05-09T15:12:39.442Z,0.30
2019-05-09T15:15:09.041Z,0.40
2019-05-09T15:17:37.994Z,0.30
2019-05-09T15:20:08.865Z,0.20
2019-05-09T15:22:38.647Z,0.20
2019-05-09T15:25:08.794Z,0.47
2019-05-09T15:27:38.488Z,0.30
2019-05-09T15:30:07.659Z,0.30
2019-05-09T15:32:37.719Z,0.50
2019-05-09T15:35:08.970Z,0.30
2019-05-09T15:37:38.522Z,0.30
2019-05-09T15:40:08.740Z,0.40
2019-05-09T15:42:38.963Z,0.40
2019-05-09T15:45:08.324Z,0.30
2019-05-09T15:47:38.601Z,0.40
2019-05-09T15:50:18.873Z,0.40
2019-05-09T15:52:39.395Z,0.30
2019-05-09T15:55:09.493Z,0.30
2019-05-09T15:57:38.231Z,0.27
2019-05-09T16:00:09.938Z,0.40
2019-05-09T16:02:39.234Z,0.47
2019-05-09T16:05:10.554Z,0.40
2019-05-09T16:07:38.601Z,0.50
2019-05-09T16:10:09.382Z,0.40
2019-05-09T16:12:38.525Z,0.40
2019-05-09T16:15:07.904Z,0.40
2019-05-09T16:17:39.320Z,0.40
2019-05-09T16:20:08.444Z,0.50
2019-05-09T16:22:39.139Z,0.33
2019-05-09T16:25:08.421Z,0.80
2019-05-09T16:27:37.964Z,0.40
2019-05-09T16:30:08.527Z,0.57
2019-05-09T16:32:37.796Z,0.83
2019-05-09T16:35:07.912Z,0.57
2019-05-09T16:37:57.280Z,0.50
2019-05-09T16:40:08.410Z,0.80
2019-05-09T16:42:38.103Z,0.87
2019-05-09T16:45:08.147Z,1.10
2019-05-09T16:47:36.700Z,0.57
2019-05-09T16:50:11.631Z,0.63
2019-05-09T16:52:43.090Z,0.50
2019-05-09T16:55:10.315Z,0.50
2019-05-09T16:57:38.714Z,0.50
2019-05-09T17:00:13.506Z,0.60
2019-05-09T17:02:42.081Z,0.60
2019-05-09T17:05:10.715Z,0.60
2019-05-09T17:07:39.119Z,0.60
2019-05-09T17:10:08.541Z,0.50
2019-05-09T17:12:37.031Z,1.10
2019-05-09T17:15:08.533Z,0.60
2019-05-09T17:17:38.505Z,1.17
2019-05-09T17:20:08.895Z,1.70
2019-05-09T17:23:08.308Z,0.57
2019-05-09T17:25:27.995Z,0.47
2019-05-09T17:27:59.124Z,0.50
2019-05-09T17:30:28.418Z,1.30
2019-05-09T17:32:58.469Z,1.10
2019-05-09T17:35:28.022Z,1.23
2019-05-09T17:37:56.771Z,1.30
2019-05-09T17:40:27.961Z,1.73
2019-05-09T17:42:56.182Z,1.20
2019-05-09T17:45:24.675Z,0.80
2019-05-09T17:47:53.417Z,0.77
2019-05-09T17:50:22.692Z,1.03
2019-05-09T17:52:51.110Z,2.53
2019-05-09T17:55:19.607Z,0.50
2019-05-09T17:57:48.155Z,0.70
2019-05-09T18:00:21.682Z,0.47
2019-05-09T18:02:48.586Z,0.70
2019-05-09T18:05:17.969Z,1.10
2019-05-09T18:07:48.521Z,0.40
2019-05-09T18:10:18.514Z,0.50
2019-05-09T18:12:48.062Z,1.57
2019-05-09T18:15:18.772Z,0.47
2019-05-09T18:17:48.019Z,0.40
2019-05-09T18:20:17.692Z,0.67
2019-05-09T18:22:47.929Z,0.40
2019-05-09T18:25:18.779Z,0.47
2019-05-09T18:27:48.789Z,0.40
2019-05-09T18:30:18.648Z,0.30
2019-05-09T18:32:51.818Z,0.30
2019-05-09T18:35:21.886Z,0.30
2019-05-09T18:37:50.639Z,0.40
2019-05-09T18:40:19.575Z,0.57
2019-05-09T18:42:48.063Z,0.20
2019-05-09T18:45:17.657Z,0.60
2019-05-09T18:47:47.988Z,0.30
2019-05-09T18:50:16.926Z,0.40
2019-05-09T18:52:45.532Z,0.30
2019-05-09T18:55:15.664Z,0.30
2019-05-09T18:57:48.362Z,0.30
2019-05-09T19:00:19.601Z,0.30
2019-05-09T19:02:48.554Z,0.40
2019-05-09T19:05:18.823Z,0.40
2019-05-09T19:07:47.408Z,0.40
2019-05-09T19:10:17.577Z,0.43
2019-05-09T19:12:46.089Z,0.37
2019-05-09T19:15:16.759Z,0.60
2019-05-09T19:18:04.852Z,0.63
2019-05-09T19:20:50.911Z,0.70
2019-05-09T19:23:19.314Z,0.73
2019-05-09T19:25:47.832Z,0.67
2019-05-09T19:28:16.295Z,0.90
2019-05-09T19:30:44.734Z,0.87
2019-05-09T19:33:13.140Z,0.60
2019-05-09T19:35:41.707Z,0.67
2019-05-09T19:38:10.107Z,0.93
2019-05-09T19:40:38.651Z,0.90
2019-05-09T19:43:07.129Z,0.93
2019-05-09T19:45:35.717Z,0.77
2019-05-09T19:48:04.362Z,0.70
2019-05-09T19:50:33.071Z,0.70
2019-05-09T19:53:01.470Z,0.77
2019-05-09T19:55:29.911Z,1.37
2019-05-09T19:57:58.413Z,1.60
2019-05-09T20:03:43.311Z,1.47
2019-05-09T20:06:11.714Z,0.90
2019-05-09T20:08:40.159Z,0.80
2019-05-09T20:11:13.229Z,0.63
2019-05-09T20:13:58.691Z,0.77
2019-05-09T20:16:29.623Z,1.17
2019-05-09T20:18:58.483Z,1.03
2019-05-09T20:21:27.122Z,5.27
2019-05-09T20:23:55.721Z,0.80
2019-05-09T20:26:24.325Z,0.60
2019-05-09T20:28:52.698Z,0.70
2019-05-09T20:31:21.115Z,0.60
2019-05-09T20:33:49.951Z,0.80
2019-05-09T20:36:18.350Z,0.60
2019-05-09T20:38:47.002Z,0.70
2019-05-09T20:41:15.595Z,0.77
2019-05-09T20:43:44.280Z,0.70
2019-05-09T20:46:12.866Z,0.60
2019-05-09T20:48:41.488Z,0.60
2019-05-09T20:51:10.170Z,1.27
2019-05-09T20:53:38.725Z,1.70
2019-05-09T20:56:07.329Z,1.90
2019-05-09T20:58:36.022Z,1.80
2019-05-09T21:01:04.666Z,1.43
2019-05-09T21:03:33.296Z,1.80
2019-05-09T21:06:01.910Z,1.30
2019-05-09T21:08:30.531Z,1.00
2019-05-09T21:10:59.130Z,0.97
2019-05-09T21:13:27.898Z,1.00
2019-05-09T21:15:56.480Z,1.17
2019-05-09T21:18:25.325Z,1.40
2019-05-09T21:20:54.107Z,1.37
2019-05-09T21:23:24.750Z,2.13
2019-05-09T21:25:53.131Z,1.40
2019-05-09T21:28:21.705Z,1.47
2019-05-09T21:30:50.390Z,1.50
2019-05-09T21:33:18.968Z,1.40
2019-05-09T21:35:47.453Z,1.07
2019-05-09T21:38:15.849Z,1.00
2019-05-09T21:40:44.716Z,1.00
2019-05-09T21:43:13.139Z,1.00
2019-05-09T21:45:43.019Z,0.90
2019-05-09T21:48:11.508Z,1.30
2019-05-09T21:50:40.020Z,1.33
2019-05-09T21:53:08.425Z,1.20
2019-05-09T21:55:36.853Z,1.30
2019-05-09T21:58:05.362Z,1.90
2019-05-09T22:00:37.842Z,1.63
2019-05-09T22:03:06.890Z,1.63
2019-05-09T22:05:36.721Z,1.10
2019-05-09T22:08:05.411Z,1.20
2019-05-09T22:10:34.061Z,1.17
2019-05-09T22:13:02.605Z,1.20
2019-05-09T22:15:31.083Z,1.10
2019-05-09T22:17:59.571Z,1.23
2019-05-09T22:20:28.236Z,1.00
2019-05-09T22:22:56.635Z,1.20
2019-05-09T22:25:25.100Z,1.20
2019-05-09T22:27:58.901Z,1.00
2019-05-09T22:30:27.426Z,1.37
2019-05-09T22:32:55.850Z,1.00
2019-05-09T22:35:24.408Z,1.10
2019-05-09T22:37:52.848Z,3.80
2019-05-09T22:40:21.310Z,1.87
2019-05-09T22:42:49.731Z,1.27
2019-05-09T22:45:18.861Z,1.23
2019-05-09T22:47:47.294Z,1.17
2019-05-09T22:50:15.743Z,2.63
2019-05-09T22:52:44.153Z,1.33
2019-05-09T22:55:12.889Z,1.10
2019-05-09T22:57:41.513Z,1.50
2019-05-09T23:00:10.377Z,1.20
2019-05-09T23:02:38.925Z,1.00
2019-05-09T23:05:08.096Z,1.13
2019-05-09T23:07:36.517Z,0.77
2019-05-09T23:10:06.649Z,1.00
2019-05-09T23:12:35.269Z,0.97
2019-05-09T23:15:04.094Z,0.87
2019-05-09T23:17:32.515Z,1.47
2019-05-09T23:20:02.630Z,1.73
2019-05-09T23:22:32.601Z,1.20
2019-05-09T23:25:01.031Z,0.80
2019-05-09T23:27:29.428Z,1.40
2019-05-09T23:29:57.829Z,1.20
2019-05-09T23:32:27.883Z,0.93
2019-05-09T23:34:56.266Z,1.93
2019-05-09T23:37:24.674Z,1.10
2019-05-09T23:39:54.900Z,1.03
2019-05-09T23:42:23.290Z,2.00
2019-05-09T23:44:51.687Z,1.00
2019-05-09T23:47:20.157Z,0.97
2019-05-09T23:49:48.620Z,1.00
2019-05-09T23:52:17.185Z,0.93
2019-05-09T23:55:03.696Z,0.80
2019-05-09T23:57:49.627Z,0.93
